createdAt,value
2022-12-18T00:00:23.182Z,1034.77
2022-12-18T00:01:23.277Z,1034.77
2022-12-18T00:02:23.179Z,1034.79
2022-12-18T00:03:23.262Z,1034.76
2022-12-18T00:04:23.338Z,1034.78
2022-12-18T00:05:23.188Z,1034.82
2022-12-18T00:06:23.199Z,1034.8
2022-12-18T00:07:23.172Z,1034.84
2022-12-18T00:08:23.172Z,1034.8
2022-12-18T00:09:24.747Z,1034.82
2022-12-18T00:10:23.178Z,1034.87
2022-12-18T00:11:23.207Z,1034.88
2022-12-18T00:12:23.176Z,1034.9
2022-12-18T00:13:23.181Z,1034.92
2022-12-18T00:14:23.178Z,1034.93
2022-12-18T00:15:23.176Z,1034.87
2022-12-18T00:16:23.310Z,1034.88
2022-12-18T00:17:23.185Z,1034.89
2022-12-18T00:18:23.172Z,1034.88
2022-12-18T00:19:23.176Z,1034.9
2022-12-18T00:20:23.196Z,1034.9
2022-12-18T00:21:23.197Z,1034.93
2022-12-18T00:22:23.178Z,1034.97
2022-12-18T00:23:23.174Z,1034.94
2022-12-18T00:24:23.260Z,1034.98
2022-12-18T00:25:23.184Z,1034.99
2022-12-18T00:26:23.189Z,1035.02
2022-12-18T00:27:23.177Z,1034.99
2022-12-18T00:28:23.175Z,1034.99
2022-12-18T00:29:23.174Z,1034.98
2022-12-18T00:30:23.174Z,1034.98
2022-12-18T00:31:23.227Z,1035.01
2022-12-18T00:32:23.171Z,1034.93
2022-12-18T00:33:23.168Z,1034.99
2022-12-18T00:34:23.176Z,1034.99
2022-12-18T00:35:23.198Z,1035.03
2022-12-18T00:36:23.184Z,1035.03
2022-12-18T00:37:23.167Z,1035.03
2022-12-18T00:38:23.173Z,1035.04
2022-12-18T00:39:23.178Z,1035.03
2022-12-18T00:40:23.173Z,1035.06
2022-12-18T00:41:23.188Z,1035
2022-12-18T00:42:23.167Z,1034.98
2022-12-18T00:43:23.167Z,1034.92
2022-12-18T00:44:23.171Z,1034.9
2022-12-18T00:45:23.235Z,1034.9
2022-12-18T00:46:23.189Z,1034.96
2022-12-18T00:47:23.175Z,1034.96
2022-12-18T00:48:23.172Z,1034.93
2022-12-18T00:49:23.168Z,1034.91
2022-12-18T00:50:23.188Z,1034.91
2022-12-18T00:51:23.185Z,1034.98
2022-12-18T00:52:23.171Z,1034.97
2022-12-18T00:53:23.170Z,1035
2022-12-18T00:54:23.167Z,1035.02
2022-12-18T00:55:23.172Z,1035.09
2022-12-18T00:56:23.191Z,1035.12
2022-12-18T00:57:23.178Z,1035.12
2022-12-18T00:58:23.179Z,1035.16
2022-12-18T00:59:23.172Z,1035.12
2022-12-18T01:00:23.173Z,1035.17
2022-12-18T01:01:23.269Z,1035.19
2022-12-18T01:02:23.247Z,1035.19
2022-12-18T01:03:23.180Z,1035.26
2022-12-18T01:04:23.177Z,1035.26
2022-12-18T01:05:23.203Z,1035.3
2022-12-18T01:06:23.188Z,1035.28
2022-12-18T01:07:23.181Z,1035.26
2022-12-18T01:08:23.179Z,1035.22
2022-12-18T01:09:23.176Z,1035.22
2022-12-18T01:10:23.172Z,1035.22
2022-12-18T01:11:23.191Z,1035.2
2022-12-18T01:12:23.174Z,1035.25
2022-12-18T01:13:23.177Z,1035.27
2022-12-18T01:14:23.186Z,1035.27
2022-12-18T01:15:23.184Z,1035.31
2022-12-18T01:16:23.475Z,1035.32
2022-12-18T01:17:23.203Z,1035.33
2022-12-18T01:18:23.177Z,1035.32
2022-12-18T01:19:23.180Z,1035.38
2022-12-18T01:20:23.271Z,1035.42
2022-12-18T01:21:23.202Z,1035.39
2022-12-18T01:22:23.186Z,1035.43
2022-12-18T01:23:23.198Z,1035.44
2022-12-18T01:24:23.173Z,1035.46
2022-12-18T01:25:23.179Z,1035.47
2022-12-18T01:26:23.190Z,1035.43
2022-12-18T01:27:23.171Z,1035.42
2022-12-18T01:28:23.178Z,1035.4
2022-12-18T01:29:23.182Z,1035.42
2022-12-18T01:30:23.173Z,1035.42
2022-12-18T01:31:23.338Z,1035.4
2022-12-18T01:32:23.175Z,1035.43
2022-12-18T01:33:23.177Z,1035.44
2022-12-18T01:34:23.182Z,1035.52
2022-12-18T01:35:23.187Z,1035.53
2022-12-18T01:36:23.195Z,1035.57
2022-12-18T01:37:23.186Z,1035.52
2022-12-18T01:38:23.174Z,1035.54
2022-12-18T01:39:23.169Z,1035.52
2022-12-18T01:40:23.175Z,1035.49
2022-12-18T01:41:23.196Z,1035.47
2022-12-18T01:42:23.173Z,1035.43
2022-12-18T01:43:23.167Z,1035.44
2022-12-18T01:44:23.170Z,1035.46
2022-12-18T01:45:23.173Z,1035.54
2022-12-18T01:46:23.188Z,1035.6
2022-12-18T01:47:23.171Z,1035.6
2022-12-18T01:48:23.174Z,1035.6
2022-12-18T01:49:23.168Z,1035.6
2022-12-18T01:50:23.186Z,1035.61
2022-12-18T01:51:23.184Z,1035.6
2022-12-18T01:52:23.171Z,1035.6
2022-12-18T01:53:23.172Z,1035.6
2022-12-18T01:54:23.169Z,1035.57
2022-12-18T01:55:23.166Z,1035.55
2022-12-18T01:56:23.192Z,1035.57
2022-12-18T01:57:23.171Z,1035.55
2022-12-18T01:58:23.175Z,1035.54
2022-12-18T01:59:23.173Z,1035.57
2022-12-18T02:00:23.168Z,1035.53
2022-12-18T02:01:23.343Z,1035.54
2022-12-18T02:02:23.296Z,1035.56
2022-12-18T02:03:23.252Z,1035.55
2022-12-18T02:04:23.178Z,1035.53
2022-12-18T02:05:23.184Z,1035.54
2022-12-18T02:06:23.185Z,1035.47
2022-12-18T02:07:23.174Z,1035.47
2022-12-18T02:08:23.175Z,1035.49
2022-12-18T02:09:23.177Z,1035.43
2022-12-18T02:10:23.214Z,1035.46
2022-12-18T02:11:23.193Z,1035.56
2022-12-18T02:12:23.177Z,1035.51
2022-12-18T02:13:23.181Z,1035.5
2022-12-18T02:14:23.177Z,1035.5
2022-12-18T02:15:23.176Z,1035.48
2022-12-18T02:16:23.388Z,1035.41
2022-12-18T02:17:23.173Z,1035.48
2022-12-18T02:18:23.175Z,1035.44
2022-12-18T02:19:23.178Z,1035.46
2022-12-18T02:20:23.194Z,1035.56
2022-12-18T02:21:23.189Z,1035.51
2022-12-18T02:22:23.169Z,1035.54
2022-12-18T02:23:23.181Z,1035.61
2022-12-18T02:24:23.177Z,1035.62
2022-12-18T02:25:23.183Z,1035.58
2022-12-18T02:26:23.187Z,1035.57
2022-12-18T02:27:23.174Z,1035.6
2022-12-18T02:28:23.171Z,1035.64
2022-12-18T02:29:23.179Z,1035.65
2022-12-18T02:30:23.224Z,1035.63
2022-12-18T02:31:23.183Z,1035.66
2022-12-18T02:32:23.163Z,1035.63
2022-12-18T02:33:23.171Z,1035.65
2022-12-18T02:34:23.178Z,1035.68
2022-12-18T02:35:23.181Z,1035.78
2022-12-18T02:36:23.184Z,1035.83
2022-12-18T02:37:23.165Z,1035.74
2022-12-18T02:38:23.179Z,1035.71
2022-12-18T02:39:23.179Z,1035.71
2022-12-18T02:40:23.178Z,1035.73
2022-12-18T02:41:23.183Z,1035.79
2022-12-18T02:42:23.167Z,1035.83
2022-12-18T02:43:23.172Z,1035.83
2022-12-18T02:44:23.176Z,1035.77
2022-12-18T02:45:23.167Z,1035.84
2022-12-18T02:46:23.182Z,1035.79
2022-12-18T02:47:23.170Z,1035.79
2022-12-18T02:48:23.176Z,1035.83
2022-12-18T02:49:23.167Z,1035.82
2022-12-18T02:50:23.180Z,1035.87
2022-12-18T02:51:23.175Z,1035.89
2022-12-18T02:52:23.167Z,1035.94
2022-12-18T02:53:23.184Z,1035.85
2022-12-18T02:54:23.167Z,1035.9
2022-12-18T02:55:23.167Z,1035.85
2022-12-18T02:56:23.173Z,1035.81
2022-12-18T02:57:23.163Z,1035.79
2022-12-18T02:58:23.160Z,1035.77
2022-12-18T02:59:23.172Z,1035.74
2022-12-18T03:00:23.163Z,1035.74
2022-12-18T03:01:23.288Z,1035.66
2022-12-18T03:02:23.345Z,1035.78
2022-12-18T03:03:23.191Z,1035.86
2022-12-18T03:04:23.159Z,1035.85
2022-12-18T03:05:23.184Z,1035.84
2022-12-18T03:06:23.186Z,1035.85
2022-12-18T03:07:23.163Z,1035.81
2022-12-18T03:08:23.158Z,1035.84
2022-12-18T03:09:23.160Z,1035.83
2022-12-18T03:10:23.162Z,1035.83
2022-12-18T03:11:23.186Z,1035.78
2022-12-18T03:12:23.169Z,1035.83
2022-12-18T03:13:23.161Z,1035.87
2022-12-18T03:14:23.166Z,1035.89
2022-12-18T03:15:23.160Z,1035.87
2022-12-18T03:16:23.253Z,1035.82
2022-12-18T03:17:23.172Z,1035.83
2022-12-18T03:18:23.172Z,1035.87
2022-12-18T03:19:23.161Z,1035.9
2022-12-18T03:20:23.183Z,1036
2022-12-18T03:21:23.190Z,1035.94
2022-12-18T03:22:23.182Z,1035.94
2022-12-18T03:23:26.085Z,1035.99
2022-12-18T03:24:23.159Z,1036
2022-12-18T03:25:23.160Z,1035.96
2022-12-18T03:26:23.186Z,1036.01
2022-12-18T03:27:23.172Z,1036.03
2022-12-18T03:28:23.167Z,1036
2022-12-18T03:29:23.165Z,1036.01
2022-12-18T03:30:23.158Z,1036.01
2022-12-18T03:31:23.284Z,1036.02
2022-12-18T03:32:23.165Z,1035.99
2022-12-18T03:33:23.160Z,1036.04
2022-12-18T03:34:23.172Z,1036.13
2022-12-18T03:35:23.183Z,1036.13
2022-12-18T03:36:23.176Z,1036.07
2022-12-18T03:37:23.169Z,1036.07
2022-12-18T03:38:23.174Z,1036.15
2022-12-18T03:39:23.175Z,1036.08
2022-12-18T03:40:23.170Z,1036.15
2022-12-18T03:41:23.186Z,1036.19
2022-12-18T03:42:23.173Z,1036.22
2022-12-18T03:43:23.168Z,1036.28
2022-12-18T03:44:23.167Z,1036.25
2022-12-18T03:45:23.173Z,1036.23
2022-12-18T03:46:23.244Z,1036.24
2022-12-18T03:47:23.170Z,1036.24
2022-12-18T03:48:23.161Z,1036.23
2022-12-18T03:49:23.239Z,1036.31
2022-12-18T03:50:23.180Z,1036.33
2022-12-18T03:51:23.178Z,1036.35
2022-12-18T03:52:23.157Z,1036.4
2022-12-18T03:53:23.168Z,1036.38
2022-12-18T03:54:23.168Z,1036.43
2022-12-18T03:55:23.159Z,1036.4
2022-12-18T03:56:23.182Z,1036.42
2022-12-18T03:57:23.171Z,1036.48
2022-12-18T03:58:23.162Z,1036.46
2022-12-18T03:59:23.178Z,1036.47
2022-12-18T04:00:23.170Z,1036.48
2022-12-18T04:01:23.293Z,1036.43
2022-12-18T04:02:23.291Z,1036.45
2022-12-18T04:03:26.440Z,1036.45
2022-12-18T04:04:23.169Z,1036.43
2022-12-18T04:05:23.181Z,1036.4
2022-12-18T04:06:23.174Z,1036.49
2022-12-18T04:07:23.164Z,1036.46
2022-12-18T04:08:23.166Z,1036.45
2022-12-18T04:09:23.167Z,1036.46
2022-12-18T04:10:23.162Z,1036.52
2022-12-18T04:11:23.178Z,1036.45
2022-12-18T04:12:23.159Z,1036.45
2022-12-18T04:13:23.158Z,1036.48
2022-12-18T04:14:23.164Z,1036.43
2022-12-18T04:15:23.164Z,1036.47
2022-12-18T04:16:23.183Z,1036.45
2022-12-18T04:17:23.160Z,1036.43
2022-12-18T04:18:23.162Z,1036.39
2022-12-18T04:19:23.165Z,1036.36
2022-12-18T04:20:23.184Z,1036.4
2022-12-18T04:21:23.178Z,1036.42
2022-12-18T04:22:23.164Z,1036.46
2022-12-18T04:23:23.167Z,1036.57
2022-12-18T04:24:23.163Z,1036.62
2022-12-18T04:25:23.170Z,1036.54
2022-12-18T04:26:23.185Z,1036.64
2022-12-18T04:27:23.184Z,1036.65
2022-12-18T04:28:23.170Z,1036.7
2022-12-18T04:29:23.161Z,1036.68
2022-12-18T04:30:23.158Z,1036.68
2022-12-18T04:31:23.235Z,1036.73
2022-12-18T04:32:23.178Z,1036.77
2022-12-18T04:33:23.166Z,1036.78
2022-12-18T04:34:23.171Z,1036.68
2022-12-18T04:35:23.182Z,1036.7
2022-12-18T04:36:23.217Z,1036.66
2022-12-18T04:37:23.167Z,1036.73
2022-12-18T04:38:23.168Z,1036.74
2022-12-18T04:39:23.269Z,1036.7
2022-12-18T04:40:23.171Z,1036.73
2022-12-18T04:41:23.184Z,1036.76
2022-12-18T04:42:23.165Z,1036.84
2022-12-18T04:43:23.225Z,1036.84
2022-12-18T04:44:23.168Z,1036.73
2022-12-18T04:45:23.168Z,1036.77
2022-12-18T04:46:23.296Z,1036.81
2022-12-18T04:47:23.165Z,1036.82
2022-12-18T04:48:23.167Z,1036.82
2022-12-18T04:49:23.172Z,1036.86
2022-12-18T04:50:23.189Z,1036.97
2022-12-18T04:51:26.391Z,1036.93
2022-12-18T04:52:24.177Z,1036.95
2022-12-18T04:53:23.167Z,1037.05
2022-12-18T04:54:23.170Z,1037.05
2022-12-18T04:55:23.175Z,1036.93
2022-12-18T04:56:23.184Z,1036.96
2022-12-18T04:57:23.159Z,1036.95
2022-12-18T04:58:23.168Z,1037.06
2022-12-18T04:59:23.204Z,1037
2022-12-18T05:00:23.181Z,1036.99
2022-12-18T05:01:23.349Z,1036.97
2022-12-18T05:02:23.373Z,1037
2022-12-18T05:03:23.195Z,1037.05
2022-12-18T05:04:23.174Z,1037.16
2022-12-18T05:05:23.172Z,1037.2
2022-12-18T05:06:23.194Z,1037.08
2022-12-18T05:07:23.182Z,1037.13
2022-12-18T05:08:23.182Z,1037.17
2022-12-18T05:09:23.170Z,1037.14
2022-12-18T05:10:23.174Z,1037.09
2022-12-18T05:11:23.177Z,1037.12
2022-12-18T05:12:23.163Z,1037.08
2022-12-18T05:13:23.168Z,1037.12
2022-12-18T05:14:23.171Z,1037.12
2022-12-18T05:15:23.164Z,1037.19
2022-12-18T05:16:23.272Z,1037.14
2022-12-18T05:17:23.158Z,1037.14
2022-12-18T05:18:23.161Z,1037.11
2022-12-18T05:19:23.162Z,1037.11
2022-12-18T05:20:23.188Z,1037.13
2022-12-18T05:21:23.181Z,1037.14
2022-12-18T05:22:23.163Z,1037.11
2022-12-18T05:23:23.163Z,1037.16
2022-12-18T05:24:23.162Z,1037.2
2022-12-18T05:25:23.162Z,1037.15
2022-12-18T05:26:23.179Z,1037.21
2022-12-18T05:27:23.163Z,1037.16
2022-12-18T05:28:23.160Z,1037.22
2022-12-18T05:29:23.158Z,1037.27
2022-12-18T05:30:23.164Z,1037.25
2022-12-18T05:31:23.338Z,1037.24
2022-12-18T05:32:23.175Z,1037.26
2022-12-18T05:33:23.172Z,1037.32
2022-12-18T05:34:23.163Z,1037.31
2022-12-18T05:35:23.176Z,1037.34
2022-12-18T05:36:23.176Z,1037.31
2022-12-18T05:37:23.164Z,1037.29
2022-12-18T05:38:23.161Z,1037.21
2022-12-18T05:39:23.163Z,1037.21
2022-12-18T05:40:23.169Z,1037.18
2022-12-18T05:41:23.182Z,1037.11
2022-12-18T05:42:23.166Z,1037.14
2022-12-18T05:43:23.232Z,1037.13
2022-12-18T05:44:23.164Z,1037.17
2022-12-18T05:45:23.169Z,1037.12
2022-12-18T05:46:23.229Z,1037.08
2022-12-18T05:47:23.166Z,1037.11
2022-12-18T05:48:23.180Z,1037.18
2022-12-18T05:49:23.164Z,1037.12
2022-12-18T05:50:23.180Z,1037.13
2022-12-18T05:51:23.189Z,1037.19
2022-12-18T05:52:23.175Z,1037.08
2022-12-18T05:53:23.172Z,1037.13
2022-12-18T05:54:23.167Z,1037.06
2022-12-18T05:55:23.160Z,1037.12
2022-12-18T05:56:23.187Z,1037.12
2022-12-18T05:57:23.164Z,1037.08
2022-12-18T05:58:23.178Z,1037.03
2022-12-18T05:59:23.173Z,1037.1
2022-12-18T06:00:23.164Z,1037.14
2022-12-18T06:01:23.238Z,1037.16
2022-12-18T06:02:23.391Z,1037.14
2022-12-18T06:03:23.298Z,1037.07
2022-12-18T06:04:23.167Z,1037.09
2022-12-18T06:05:23.194Z,1037.13
2022-12-18T06:06:23.188Z,1037.13
2022-12-18T06:07:23.168Z,1037.09
2022-12-18T06:08:23.164Z,1037.09
2022-12-18T06:09:23.159Z,1037.11
2022-12-18T06:10:23.162Z,1037.18
2022-12-18T06:11:23.191Z,1037.27
2022-12-18T06:12:23.170Z,1037.27
2022-12-18T06:13:23.173Z,1037.16
2022-12-18T06:14:23.232Z,1037.16
2022-12-18T06:15:23.168Z,1037.15
2022-12-18T06:16:23.247Z,1037.16
2022-12-18T06:17:23.190Z,1037.24
2022-12-18T06:18:23.170Z,1037.26
2022-12-18T06:19:23.160Z,1037.37
2022-12-18T06:20:23.239Z,1037.38
2022-12-18T06:21:23.183Z,1037.35
2022-12-18T06:22:23.168Z,1037.36
2022-12-18T06:23:23.163Z,1037.39
2022-12-18T06:24:23.167Z,1037.45
2022-12-18T06:25:23.164Z,1037.44
2022-12-18T06:26:27.852Z,1037.37
2022-12-18T06:27:23.158Z,1037.38
2022-12-18T06:28:23.161Z,1037.46
2022-12-18T06:29:23.162Z,1037.41
2022-12-18T06:30:23.169Z,1037.47
2022-12-18T06:31:23.271Z,1037.47
2022-12-18T06:32:23.166Z,1037.48
2022-12-18T06:33:23.164Z,1037.37
2022-12-18T06:34:23.157Z,1037.57
2022-12-18T06:35:23.179Z,1037.6
2022-12-18T06:36:23.182Z,1037.59
2022-12-18T06:37:23.163Z,1037.45
2022-12-18T06:38:23.168Z,1037.46
2022-12-18T06:39:23.158Z,1037.46
2022-12-18T06:40:23.169Z,1037.4
2022-12-18T06:41:23.178Z,1037.43
2022-12-18T06:42:23.157Z,1037.45
2022-12-18T06:43:23.169Z,1037.4
2022-12-18T06:44:23.172Z,1037.4
2022-12-18T06:45:23.169Z,1037.5
2022-12-18T06:46:23.177Z,1037.51
2022-12-18T06:47:23.165Z,1037.44
2022-12-18T06:48:23.176Z,1037.47
2022-12-18T06:49:27.356Z,1037.51
2022-12-18T06:50:23.176Z,1037.54
2022-12-18T06:51:23.183Z,1037.52
2022-12-18T06:52:23.169Z,1037.52
2022-12-18T06:53:23.162Z,1037.52
2022-12-18T06:54:23.178Z,1037.58
2022-12-18T06:55:23.166Z,1037.58
2022-12-18T06:56:23.184Z,1037.62
2022-12-18T06:57:23.169Z,1037.62
2022-12-18T06:58:23.170Z,1037.65
2022-12-18T06:59:23.167Z,1037.64
2022-12-18T07:00:23.158Z,1037.69
2022-12-18T07:01:23.382Z,1037.55
2022-12-18T07:02:23.337Z,1037.65
2022-12-18T07:03:23.167Z,1037.56
2022-12-18T07:04:23.203Z,1037.55
2022-12-18T07:05:23.176Z,1037.49
2022-12-18T07:06:23.178Z,1037.6
2022-12-18T07:07:23.162Z,1037.61
2022-12-18T07:08:23.173Z,1037.72
2022-12-18T07:09:23.168Z,1037.6
2022-12-18T07:10:23.160Z,1037.72
2022-12-18T07:11:23.196Z,1037.76
2022-12-18T07:12:23.165Z,1037.78
2022-12-18T07:13:23.162Z,1037.69
2022-12-18T07:14:23.169Z,1037.65
2022-12-18T07:15:23.170Z,1037.71
2022-12-18T07:16:25.562Z,1037.75
2022-12-18T07:17:23.172Z,1038.13
2022-12-18T07:18:23.166Z,1037.7
2022-12-18T07:19:23.164Z,1037.71
2022-12-18T07:20:23.186Z,1037.83
2022-12-18T07:21:23.174Z,1037.89
2022-12-18T07:22:23.167Z,1037.87
2022-12-18T07:23:23.173Z,1037.82
2022-12-18T07:24:23.167Z,1037.76
2022-12-18T07:25:23.167Z,1037.74
2022-12-18T07:26:23.182Z,1037.79
2022-12-18T07:27:23.163Z,1037.85
2022-12-18T07:28:23.164Z,1037.99
2022-12-18T07:29:23.168Z,1037.9
2022-12-18T07:30:23.167Z,1037.9
2022-12-18T07:31:23.317Z,1037.75
2022-12-18T07:32:23.164Z,1037.89
2022-12-18T07:33:23.174Z,1037.74
2022-12-18T07:34:23.161Z,1037.76
2022-12-18T07:35:25.197Z,1037.74
2022-12-18T07:36:23.173Z,1038.01
2022-12-18T07:37:23.158Z,1037.93
2022-12-18T07:38:23.164Z,1037.82
2022-12-18T07:39:23.168Z,1037.73
2022-12-18T07:40:23.166Z,1037.81
2022-12-18T07:41:23.211Z,1037.91
2022-12-18T07:42:23.158Z,1037.9
2022-12-18T07:43:23.164Z,1037.84
2022-12-18T07:44:23.158Z,1037.91
2022-12-18T07:45:23.157Z,1038.03
2022-12-18T07:46:23.238Z,1037.86
2022-12-18T07:47:23.161Z,1037.85
2022-12-18T07:48:23.172Z,1038.02
2022-12-18T07:49:23.163Z,1038.09
2022-12-18T07:50:23.175Z,1038.12
2022-12-18T07:51:23.175Z,1037.94
2022-12-18T07:52:26.184Z,1038.13
2022-12-18T07:53:23.166Z,1038.03
2022-12-18T07:54:23.162Z,1038.18
2022-12-18T07:55:23.165Z,1038.04
2022-12-18T07:56:28.109Z,1038.03
2022-12-18T07:57:48.934Z,1038.4
2022-12-18T07:58:23.159Z,1038.24
2022-12-18T07:59:23.174Z,1038.15
2022-12-18T08:00:23.176Z,1038.16
2022-12-18T08:01:23.465Z,1038.17
2022-12-18T08:02:23.354Z,1038.25
2022-12-18T08:03:23.288Z,1038.14
2022-12-18T08:04:23.161Z,1038.18
2022-12-18T08:05:23.191Z,1038.16
2022-12-18T08:06:24.568Z,1038.14
2022-12-18T08:07:23.179Z,1038.13
2022-12-18T08:08:23.172Z,1038.12
2022-12-18T08:09:23.191Z,1038.29
2022-12-18T08:10:23.163Z,1038.19
2022-12-18T08:11:23.178Z,1038.27
2022-12-18T08:12:23.171Z,1038.24
2022-12-18T08:13:23.166Z,1038.16
2022-12-18T08:14:23.170Z,1038.23
2022-12-18T08:15:23.166Z,1038.15
2022-12-18T08:16:23.312Z,1038.2
2022-12-18T08:17:23.175Z,1038.32
2022-12-18T08:18:23.170Z,1038.14
2022-12-18T08:19:23.167Z,1038.12
2022-12-18T08:20:23.178Z,1038.12
2022-12-18T08:21:23.185Z,1038.07
2022-12-18T08:22:23.169Z,1038.08
2022-12-18T08:23:23.170Z,1038.02
2022-12-18T08:24:23.173Z,1038.14
2022-12-18T08:25:23.168Z,1038.03
2022-12-18T08:26:23.181Z,1038.04
2022-12-18T08:27:30.434Z,1038.03
2022-12-18T08:28:23.172Z,1038.27
2022-12-18T08:29:23.172Z,1038.04
2022-12-18T08:30:23.161Z,1038.04
2022-12-18T08:31:23.504Z,1038.06
2022-12-18T08:32:23.196Z,1037.92
2022-12-18T08:33:23.159Z,1038.1
2022-12-18T08:34:23.163Z,1038.13
2022-12-18T08:35:23.185Z,1037.93
2022-12-18T08:36:23.182Z,1037.91
2022-12-18T08:37:23.177Z,1038.39
2022-12-18T08:38:23.165Z,1037.97
2022-12-18T08:39:23.180Z,1037.96
2022-12-18T08:40:23.172Z,1038.05
2022-12-18T08:41:23.185Z,1038.08
2022-12-18T08:42:23.170Z,1038.04
2022-12-18T08:43:23.181Z,1037.93
2022-12-18T08:44:23.169Z,1038
2022-12-18T08:45:23.161Z,1037.93
2022-12-18T08:46:23.360Z,1038.04
2022-12-18T08:47:23.207Z,1038.03
2022-12-18T08:48:23.182Z,1038.04
2022-12-18T08:49:23.161Z,1037.86
2022-12-18T08:50:23.277Z,1037.92
2022-12-18T08:51:23.177Z,1037.71
2022-12-18T08:52:23.160Z,1037.77
2022-12-18T08:53:23.189Z,1037.78
2022-12-18T08:54:23.168Z,1037.7
2022-12-18T08:55:23.167Z,1037.8
2022-12-18T08:56:23.178Z,1037.68
2022-12-18T08:57:23.157Z,1037.71
2022-12-18T08:58:23.161Z,1037.61
2022-12-18T08:59:23.163Z,1037.66
2022-12-18T09:00:23.158Z,1037.61
2022-12-18T09:01:23.300Z,1037.59
2022-12-18T09:02:23.374Z,1037.66
2022-12-18T09:03:23.238Z,1037.5
2022-12-18T09:04:23.160Z,1037.35
2022-12-18T09:05:23.176Z,1037.48
2022-12-18T09:06:23.174Z,1037.43
2022-12-18T09:07:23.164Z,1037.5
2022-12-18T09:08:23.162Z,1037.44
2022-12-18T09:09:23.169Z,1037.49
2022-12-18T09:10:23.191Z,1037.54
2022-12-18T09:11:23.176Z,1037.52
2022-12-18T09:12:23.160Z,1037.45
2022-12-18T09:13:23.167Z,1037.54
2022-12-18T09:14:23.169Z,1037.58
2022-12-18T09:15:23.170Z,1037.5
2022-12-18T09:16:27.362Z,1037.69
2022-12-18T09:17:23.230Z,1037.78
2022-12-18T09:18:23.181Z,1037.66
2022-12-18T09:19:23.172Z,1037.72
2022-12-18T09:20:23.267Z,1037.72
2022-12-18T09:21:23.201Z,1037.8
2022-12-18T09:22:23.168Z,1037.85
2022-12-18T09:23:23.167Z,1037.89
2022-12-18T09:24:23.169Z,1037.82
2022-12-18T09:25:23.169Z,1037.94
2022-12-18T09:26:23.179Z,1037.83
2022-12-18T09:27:23.167Z,1038.14
2022-12-18T09:28:23.173Z,1038.07
2022-12-18T09:29:23.173Z,1038.06
2022-12-18T09:30:23.256Z,1038.06
2022-12-18T09:31:23.259Z,1038.46
2022-12-18T09:32:23.171Z,1038.02
2022-12-18T09:33:23.169Z,1038.19
2022-12-18T09:34:23.409Z,1038.26
2022-12-18T09:35:23.185Z,1038.37
2022-12-18T09:36:23.184Z,1038.15
2022-12-18T09:37:23.178Z,1038.09
2022-12-18T09:38:23.182Z,1038.06
2022-12-18T09:39:24.224Z,1038.26
2022-12-18T09:40:23.165Z,1038.13
2022-12-18T09:41:23.183Z,1038.14
2022-12-18T09:42:23.171Z,1038.2
2022-12-18T09:43:23.163Z,1038.04
2022-12-18T09:44:23.190Z,1038.07
2022-12-18T09:45:23.171Z,1037.97
2022-12-18T09:46:23.296Z,1038.12
2022-12-18T09:47:23.168Z,1037.93
2022-12-18T09:48:23.170Z,1038.16
2022-12-18T09:49:23.168Z,1038.01
2022-12-18T09:50:23.183Z,1038.18
2022-12-18T09:51:23.184Z,1038.14
2022-12-18T09:52:23.177Z,1038.03
2022-12-18T09:53:23.168Z,1038.32
2022-12-18T09:54:23.156Z,1038.17
2022-12-18T09:55:23.159Z,1038.19
2022-12-18T09:56:23.180Z,1038.27
2022-12-18T09:57:23.172Z,1038.39
2022-12-18T09:58:23.163Z,1038.28
2022-12-18T09:59:23.158Z,1038.32
2022-12-18T10:00:23.168Z,1038.29
2022-12-18T10:01:23.228Z,1038.3
2022-12-18T10:02:23.363Z,1038.3
2022-12-18T10:03:23.168Z,1038.26
2022-12-18T10:04:23.283Z,1038.33
2022-12-18T10:05:23.177Z,1038.18
2022-12-18T10:06:23.190Z,1038.38
2022-12-18T10:07:23.166Z,1038.23
2022-12-18T10:08:23.158Z,1038.23
2022-12-18T10:09:23.156Z,1038.47
2022-12-18T10:10:23.163Z,1038.36
2022-12-18T10:11:23.176Z,1038.36
2022-12-18T10:12:23.165Z,1038.59
2022-12-18T10:13:23.858Z,1038.4
2022-12-18T10:14:23.172Z,1038.4
2022-12-18T10:15:23.163Z,1038.43
2022-12-18T10:16:23.240Z,1038.4
2022-12-18T10:17:23.173Z,1038.4
2022-12-18T10:18:23.164Z,1038.39
2022-12-18T10:19:23.218Z,1038.38
2022-12-18T10:20:23.195Z,1038.41
2022-12-18T10:21:23.180Z,1038.49
2022-12-18T10:22:23.164Z,1038.52
2022-12-18T10:23:23.242Z,1038.47
2022-12-18T10:24:23.159Z,1038.47
2022-12-18T10:25:23.167Z,1038.48
2022-12-18T10:26:23.230Z,1038.41
2022-12-18T10:27:23.159Z,1038.35
2022-12-18T10:28:23.162Z,1038.38
2022-12-18T10:29:23.168Z,1038.35
2022-12-18T10:30:23.162Z,1038.35
2022-12-18T10:31:24.674Z,1038.2
2022-12-18T10:32:23.170Z,1038.14
2022-12-18T10:33:23.168Z,1038.13
2022-12-18T10:34:23.168Z,1038.15
2022-12-18T10:35:23.183Z,1038.18
2022-12-18T10:36:23.183Z,1038.22
2022-12-18T10:37:23.162Z,1038.21
2022-12-18T10:38:23.169Z,1038.22
2022-12-18T10:39:23.166Z,1038.14
2022-12-18T10:40:23.163Z,1038.12
2022-12-18T10:41:23.181Z,1038.13
2022-12-18T10:42:23.163Z,1038.03
2022-12-18T10:43:23.170Z,1038.12
2022-12-18T10:44:23.169Z,1038.04
2022-12-18T10:45:23.166Z,1037.95
2022-12-18T10:46:23.257Z,1037.99
2022-12-18T10:47:23.176Z,1038.01
2022-12-18T10:48:23.271Z,1037.92
2022-12-18T10:49:23.158Z,1037.94
2022-12-18T10:50:26.179Z,1037.87
2022-12-18T10:51:23.189Z,1037.85
2022-12-18T10:52:23.177Z,1037.85
2022-12-18T10:53:23.163Z,1037.81
2022-12-18T10:54:23.168Z,1037.79
2022-12-18T10:55:23.301Z,1037.73
2022-12-18T10:56:23.181Z,1037.74
2022-12-18T10:57:23.163Z,1037.74
2022-12-18T10:58:26.610Z,1037.79
2022-12-18T10:59:23.169Z,1037.73
2022-12-18T11:00:23.173Z,1037.76
2022-12-18T11:01:23.293Z,1037.81
2022-12-18T11:02:23.308Z,1037.7
2022-12-18T11:03:23.207Z,1037.63
2022-12-18T11:04:23.164Z,1037.63
2022-12-18T11:05:23.184Z,1037.62
2022-12-18T11:06:23.177Z,1037.59
2022-12-18T11:07:23.164Z,1037.56
2022-12-18T11:08:23.163Z,1037.53
2022-12-18T11:09:23.173Z,1037.52
2022-12-18T11:10:23.161Z,1037.57
2022-12-18T11:11:23.181Z,1037.6
2022-12-18T11:12:23.166Z,1037.58
2022-12-18T11:13:23.168Z,1037.57
2022-12-18T11:14:23.164Z,1037.59
2022-12-18T11:15:23.166Z,1037.58
2022-12-18T11:16:23.232Z,1037.59
2022-12-18T11:17:26.090Z,1037.54
2022-12-18T11:18:23.164Z,1037.52
2022-12-18T11:19:23.508Z,1037.54
2022-12-18T11:20:23.175Z,1037.43
2022-12-18T11:21:23.182Z,1037.46
2022-12-18T11:22:23.158Z,1037.57
2022-12-18T11:23:23.158Z,1037.54
2022-12-18T11:24:23.176Z,1037.44
2022-12-18T11:25:33.008Z,1037.5
2022-12-18T11:26:23.172Z,1037.49
2022-12-18T11:27:23.231Z,1037.46
2022-12-18T11:28:23.173Z,1037.48
2022-12-18T11:29:23.197Z,1037.49
2022-12-18T11:30:23.155Z,1037.49
2022-12-18T11:31:23.294Z,1037.48
2022-12-18T11:32:23.161Z,1037.58
2022-12-18T11:33:23.161Z,1037.49
2022-12-18T11:34:30.058Z,1037.5
2022-12-18T11:35:23.207Z,1037.46
2022-12-18T11:36:23.184Z,1037.51
2022-12-18T11:37:23.214Z,1037.42
2022-12-18T11:38:23.229Z,1037.52
2022-12-18T11:39:23.173Z,1037.47
2022-12-18T11:40:23.172Z,1037.5
2022-12-18T11:41:23.175Z,1037.47
2022-12-18T11:42:23.158Z,1037.5
2022-12-18T11:43:23.167Z,1037.38
2022-12-18T11:44:23.170Z,1037.49
2022-12-18T11:45:23.161Z,1037.51
2022-12-18T11:46:23.268Z,1037.4
2022-12-18T11:47:23.168Z,1037.46
2022-12-18T11:48:23.167Z,1037.45
2022-12-18T11:49:23.181Z,1037.46
2022-12-18T11:50:23.181Z,1037.48
2022-12-18T11:52:12.998Z,1037.47
2022-12-18T11:53:11.689Z,1037.45
2022-12-18T11:54:11.685Z,1037.44
2022-12-18T11:55:11.695Z,1037.44
2022-12-18T11:56:11.671Z,1037.4
2022-12-18T11:57:11.685Z,1037.38
2022-12-18T11:58:11.680Z,1037.32
2022-12-18T11:59:11.667Z,1037.29
2022-12-18T12:00:22.635Z,1037.29
2022-12-18T12:01:19.972Z,1037.31
2022-12-18T12:02:20.061Z,1037.27
2022-12-18T12:03:19.909Z,1037.21
2022-12-18T12:04:19.932Z,1037.16
2022-12-18T12:05:19.873Z,1037.22
2022-12-18T12:06:19.884Z,1037.25
2022-12-18T12:07:19.880Z,1037.34
2022-12-18T12:08:19.874Z,1037.25
2022-12-18T12:09:19.871Z,1037.31